sensor_id;sensor_type;location;lat;lon;timestamp;P1;durP1;ratioP1;P2;durP2;ratioP2
38379;SDS011;38377;47.418;18.882;2022-12-20T00:00:49;68.20;;;34.23;;
38379;SDS011;38377;47.418;18.882;2022-12-20T00:03:15;71.47;;;35.00;;
38379;SDS011;38377;47.418;18.882;2022-12-20T00:05:41;76.27;;;35.80;;
38379;SDS011;38377;47.418;18.882;2022-12-20T00:08:08;71.33;;;36.07;;
38379;SDS011;38377;47.418;18.882;2022-12-20T00:10:35;63.20;;;30.10;;
38379;SDS011;38377;47.418;18.882;2022-12-20T00:13:01;77.23;;;36.40;;
38379;SDS011;38377;47.418;18.882;2022-12-20T00:15:27;60.43;;;30.63;;
38379;SDS011;38377;47.418;18.882;2022-12-20T00:17:53;71.47;;;35.97;;
38379;SDS011;38377;47.418;18.882;2022-12-20T00:20:19;70.50;;;34.20;;
38379;SDS011;38377;47.418;18.882;2022-12-20T00:22:44;65.20;;;33.30;;
38379;SDS011;38377;47.418;18.882;2022-12-20T00:25:10;63.07;;;33.00;;
38379;SDS011;38377;47.418;18.882;2022-12-20T00:27:36;60.07;;;27.40;;
38379;SDS011;38377;47.418;18.882;2022-12-20T00:30:02;49.13;;;24.20;;
38379;SDS011;38377;47.418;18.882;2022-12-20T00:32:28;61.30;;;31.87;;
38379;SDS011;38377;47.418;18.882;2022-12-20T00:34:53;54.27;;;27.90;;
38379;SDS011;38377;47.418;18.882;2022-12-20T00:37:19;53.73;;;29.73;;
38379;SDS011;38377;47.418;18.882;2022-12-20T00:39:45;61.40;;;31.73;;
38379;SDS011;38377;47.418;18.882;2022-12-20T00:42:10;55.57;;;29.27;;
38379;SDS011;38377;47.418;18.882;2022-12-20T00:44:36;62.43;;;31.17;;
38379;SDS011;38377;47.418;18.882;2022-12-20T00:47:02;59.50;;;30.03;;
38379;SDS011;38377;47.418;18.882;2022-12-20T00:49:27;51.43;;;23.20;;
38379;SDS011;38377;47.418;18.882;2022-12-20T00:51:53;57.97;;;29.37;;
38379;SDS011;38377;47.418;18.882;2022-12-20T00:54:19;56.27;;;28.13;;
38379;SDS011;38377;47.418;18.882;2022-12-20T00:56:44;57.03;;;28.10;;
38379;SDS011;38377;47.418;18.882;2022-12-20T00:59:10;61.57;;;29.27;;
38379;SDS011;38377;47.418;18.882;2022-12-20T01:01:36;59.57;;;28.90;;
38379;SDS011;38377;47.418;18.882;2022-12-20T01:04:01;57.83;;;27.50;;
38379;SDS011;38377;47.418;18.882;2022-12-20T01:06:28;59.23;;;29.30;;
38379;SDS011;38377;47.418;18.882;2022-12-20T01:08:54;55.47;;;29.23;;
38379;SDS011;38377;47.418;18.882;2022-12-20T01:11:25;60.33;;;28.97;;
38379;SDS011;38377;47.418;18.882;2022-12-20T01:13:54;62.73;;;31.27;;
38379;SDS011;38377;47.418;18.882;2022-12-20T01:16:22;55.60;;;29.27;;
38379;SDS011;38377;47.418;18.882;2022-12-20T01:18:55;58.57;;;31.07;;
38379;SDS011;38377;47.418;18.882;2022-12-20T01:21:22;55.37;;;28.93;;
38379;SDS011;38377;47.418;18.882;2022-12-20T01:23:48;42.00;;;19.50;;
38379;SDS011;38377;47.418;18.882;2022-12-20T01:26:15;55.60;;;26.40;;
38379;SDS011;38377;47.418;18.882;2022-12-20T01:28:45;57.00;;;29.80;;
38379;SDS011;38377;47.418;18.882;2022-12-20T01:31:15;54.60;;;28.70;;
38379;SDS011;38377;47.418;18.882;2022-12-20T01:33:42;60.35;;;30.80;;
38379;SDS011;38377;47.418;18.882;2022-12-20T01:36:19;60.70;;;29.97;;
38379;SDS011;38377;47.418;18.882;2022-12-20T01:38:54;55.30;;;28.00;;
38379;SDS011;38377;47.418;18.882;2022-12-20T01:41:24;38.23;;;18.20;;
38379;SDS011;38377;47.418;18.882;2022-12-20T01:43:55;45.73;;;22.70;;
38379;SDS011;38377;47.418;18.882;2022-12-20T01:46:23;42.88;;;23.27;;
38379;SDS011;38377;47.418;18.882;2022-12-20T01:48:55;49.77;;;22.20;;
38379;SDS011;38377;47.418;18.882;2022-12-20T01:51:31;48.72;;;22.63;;
38379;SDS011;38377;47.418;18.882;2022-12-20T01:54:02;50.37;;;26.87;;
38379;SDS011;38377;47.418;18.882;2022-12-20T01:56:30;59.30;;;29.93;;
38379;SDS011;38377;47.418;18.882;2022-12-20T01:58:56;51.13;;;24.40;;
38379;SDS011;38377;47.418;18.882;2022-12-20T02:01:23;42.20;;;21.10;;
38379;SDS011;38377;47.418;18.882;2022-12-20T02:03:50;55.37;;;28.50;;
38379;SDS011;38377;47.418;18.882;2022-12-20T02:06:20;56.67;;;28.20;;
38379;SDS011;38377;47.418;18.882;2022-12-20T02:08:47;57.80;;;26.73;;
38379;SDS011;38377;47.418;18.882;2022-12-20T02:16:53;58.27;;;28.63;;
38379;SDS011;38377;47.418;18.882;2022-12-20T02:25:05;52.93;;;26.37;;
38379;SDS011;38377;47.418;18.882;2022-12-20T02:30:22;58.23;;;30.60;;
38379;SDS011;38377;47.418;18.882;2022-12-20T02:35:32;48.88;;;24.85;;
38379;SDS011;38377;47.418;18.882;2022-12-20T02:38:01;60.33;;;30.13;;
38379;SDS011;38377;47.418;18.882;2022-12-20T02:40:47;58.10;;;29.47;;
38379;SDS011;38377;47.418;18.882;2022-12-20T02:43:15;55.93;;;29.87;;
38379;SDS011;38377;47.418;18.882;2022-12-20T02:45:59;61.40;;;30.17;;
38379;SDS011;38377;47.418;18.882;2022-12-20T02:48:28;62.07;;;30.93;;
38379;SDS011;38377;47.418;18.882;2022-12-20T02:50:57;63.07;;;31.33;;
38379;SDS011;38377;47.418;18.882;2022-12-20T02:53:25;61.03;;;29.63;;
38379;SDS011;38377;47.418;18.882;2022-12-20T02:55:56;56.90;;;27.23;;
38379;SDS011;38377;47.418;18.882;2022-12-20T02:58:50;57.90;;;28.50;;
38379;SDS011;38377;47.418;18.882;2022-12-20T03:01:25;57.35;;;28.38;;
38379;SDS011;38377;47.418;18.882;2022-12-20T03:03:58;58.23;;;29.00;;
38379;SDS011;38377;47.418;18.882;2022-12-20T03:06:24;57.40;;;29.20;;
38379;SDS011;38377;47.418;18.882;2022-12-20T03:08:51;56.30;;;29.07;;
38379;SDS011;38377;47.418;18.882;2022-12-20T03:11:16;57.07;;;30.27;;
38379;SDS011;38377;47.418;18.882;2022-12-20T03:13:44;62.60;;;29.67;;
38379;SDS011;38377;47.418;18.882;2022-12-20T03:16:10;54.50;;;28.60;;
38379;SDS011;38377;47.418;18.882;2022-12-20T03:18:35;62.93;;;27.97;;
38379;SDS011;38377;47.418;18.882;2022-12-20T03:21:01;54.33;;;27.43;;
38379;SDS011;38377;47.418;18.882;2022-12-20T03:23:27;58.37;;;28.13;;
38379;SDS011;38377;47.418;18.882;2022-12-20T03:25:53;58.17;;;30.23;;
38379;SDS011;38377;47.418;18.882;2022-12-20T03:28:19;57.03;;;29.10;;
38379;SDS011;38377;47.418;18.882;2022-12-20T03:30:45;59.03;;;29.00;;
38379;SDS011;38377;47.418;18.882;2022-12-20T03:33:11;60.10;;;28.07;;
38379;SDS011;38377;47.418;18.882;2022-12-20T03:35:37;51.70;;;28.60;;
38379;SDS011;38377;47.418;18.882;2022-12-20T03:38:02;58.43;;;29.67;;
38379;SDS011;38377;47.418;18.882;2022-12-20T03:40:31;53.50;;;27.73;;
38379;SDS011;38377;47.418;18.882;2022-12-20T03:42:57;59.97;;;28.93;;
38379;SDS011;38377;47.418;18.882;2022-12-20T03:45:23;53.93;;;28.07;;
38379;SDS011;38377;47.418;18.882;2022-12-20T03:47:48;59.13;;;28.67;;
38379;SDS011;38377;47.418;18.882;2022-12-20T03:50:14;60.33;;;28.47;;
38379;SDS011;38377;47.418;18.882;2022-12-20T03:52:39;58.00;;;29.73;;
38379;SDS011;38377;47.418;18.882;2022-12-20T03:55:05;55.07;;;29.30;;
38379;SDS011;38377;47.418;18.882;2022-12-20T03:57:32;48.30;;;26.57;;
38379;SDS011;38377;47.418;18.882;2022-12-20T03:59:57;48.43;;;25.13;;
38379;SDS011;38377;47.418;18.882;2022-12-20T04:02:23;51.67;;;26.33;;
38379;SDS011;38377;47.418;18.882;2022-12-20T04:04:48;55.80;;;26.97;;
38379;SDS011;38377;47.418;18.882;2022-12-20T04:07:14;58.03;;;28.60;;
38379;SDS011;38377;47.418;18.882;2022-12-20T04:09:40;54.87;;;29.60;;
38379;SDS011;38377;47.418;18.882;2022-12-20T04:12:06;39.00;;;20.10;;
38379;SDS011;38377;47.418;18.882;2022-12-20T04:14:32;52.60;;;25.83;;
38379;SDS011;38377;47.418;18.882;2022-12-20T04:16:57;50.47;;;27.03;;
38379;SDS011;38377;47.418;18.882;2022-12-20T04:19:23;52.13;;;28.70;;
38379;SDS011;38377;47.418;18.882;2022-12-20T04:21:50;51.50;;;26.40;;
38379;SDS011;38377;47.418;18.882;2022-12-20T04:24:16;55.53;;;28.23;;
38379;SDS011;38377;47.418;18.882;2022-12-20T04:26:42;53.77;;;27.67;;
38379;SDS011;38377;47.418;18.882;2022-12-20T04:29:07;49.40;;;26.43;;
38379;SDS011;38377;47.418;18.882;2022-12-20T04:31:33;50.37;;;24.97;;
38379;SDS011;38377;47.418;18.882;2022-12-20T04:33:59;57.17;;;27.80;;
38379;SDS011;38377;47.418;18.882;2022-12-20T04:36:24;46.13;;;22.77;;
38379;SDS011;38377;47.418;18.882;2022-12-20T04:38:50;51.90;;;26.43;;
38379;SDS011;38377;47.418;18.882;2022-12-20T04:41:16;53.10;;;28.50;;
38379;SDS011;38377;47.418;18.882;2022-12-20T04:43:51;55.67;;;28.50;;
38379;SDS011;38377;47.418;18.882;2022-12-20T04:46:18;53.03;;;27.63;;
38379;SDS011;38377;47.418;18.882;2022-12-20T04:48:45;55.37;;;28.87;;
38379;SDS011;38377;47.418;18.882;2022-12-20T04:51:10;56.13;;;28.07;;
38379;SDS011;38377;47.418;18.882;2022-12-20T04:53:36;55.10;;;28.00;;
38379;SDS011;38377;47.418;18.882;2022-12-20T04:56:12;57.07;;;27.53;;
38379;SDS011;38377;47.418;18.882;2022-12-20T04:58:39;48.10;;;24.30;;
38379;SDS011;38377;47.418;18.882;2022-12-20T05:01:05;51.47;;;25.77;;
38379;SDS011;38377;47.418;18.882;2022-12-20T05:03:30;52.47;;;26.20;;
38379;SDS011;38377;47.418;18.882;2022-12-20T05:05:56;51.70;;;27.00;;
38379;SDS011;38377;47.418;18.882;2022-12-20T05:08:22;50.83;;;26.13;;
38379;SDS011;38377;47.418;18.882;2022-12-20T05:10:48;50.87;;;26.77;;
38379;SDS011;38377;47.418;18.882;2022-12-20T05:13:14;49.20;;;25.73;;
38379;SDS011;38377;47.418;18.882;2022-12-20T05:15:40;55.87;;;28.47;;
38379;SDS011;38377;47.418;18.882;2022-12-20T05:18:06;46.47;;;27.63;;
38379;SDS011;38377;47.418;18.882;2022-12-20T05:20:32;50.93;;;27.83;;
38379;SDS011;38377;47.418;18.882;2022-12-20T05:22:59;55.07;;;26.93;;
38379;SDS011;38377;47.418;18.882;2022-12-20T05:25:52;49.43;;;26.83;;
38379;SDS011;38377;47.418;18.882;2022-12-20T05:28:36;47.97;;;26.27;;
38379;SDS011;38377;47.418;18.882;2022-12-20T05:31:02;45.53;;;24.33;;
38379;SDS011;38377;47.418;18.882;2022-12-20T05:33:28;43.83;;;23.23;;
38379;SDS011;38377;47.418;18.882;2022-12-20T05:35:54;51.53;;;26.17;;
38379;SDS011;38377;47.418;18.882;2022-12-20T05:38:20;48.33;;;25.53;;
38379;SDS011;38377;47.418;18.882;2022-12-20T05:40:47;42.23;;;23.93;;
38379;SDS011;38377;47.418;18.882;2022-12-20T05:43:13;48.83;;;25.00;;
38379;SDS011;38377;47.418;18.882;2022-12-20T05:45:43;52.47;;;24.00;;
38379;SDS011;38377;47.418;18.882;2022-12-20T05:48:14;50.47;;;23.80;;
38379;SDS011;38377;47.418;18.882;2022-12-20T05:50:40;47.50;;;23.47;;
38379;SDS011;38377;47.418;18.882;2022-12-20T05:53:08;52.97;;;26.83;;
38379;SDS011;38377;47.418;18.882;2022-12-20T05:55:40;52.43;;;29.43;;
38379;SDS011;38377;47.418;18.882;2022-12-20T05:58:15;50.47;;;25.37;;
38379;SDS011;38377;47.418;18.882;2022-12-20T06:00:42;56.43;;;30.07;;
38379;SDS011;38377;47.418;18.882;2022-12-20T06:03:08;52.70;;;27.47;;
38379;SDS011;38377;47.418;18.882;2022-12-20T06:05:36;45.20;;;23.20;;
38379;SDS011;38377;47.418;18.882;2022-12-20T06:08:05;51.33;;;23.53;;
38379;SDS011;38377;47.418;18.882;2022-12-20T06:10:32;58.13;;;27.13;;
38379;SDS011;38377;47.418;18.882;2022-12-20T06:12:59;44.57;;;25.60;;
38379;SDS011;38377;47.418;18.882;2022-12-20T06:15:26;42.20;;;22.47;;
38379;SDS011;38377;47.418;18.882;2022-12-20T06:17:52;50.37;;;22.97;;
38379;SDS011;38377;47.418;18.882;2022-12-20T06:20:17;54.63;;;27.10;;
38379;SDS011;38377;47.418;18.882;2022-12-20T06:22:43;53.47;;;26.07;;
38379;SDS011;38377;47.418;18.882;2022-12-20T06:25:09;51.47;;;26.77;;
38379;SDS011;38377;47.418;18.882;2022-12-20T06:27:36;45.37;;;24.93;;
38379;SDS011;38377;47.418;18.882;2022-12-20T06:30:05;47.33;;;27.20;;
38379;SDS011;38377;47.418;18.882;2022-12-20T06:32:32;46.40;;;25.03;;
38379;SDS011;38377;47.418;18.882;2022-12-20T06:34:58;45.60;;;23.63;;
38379;SDS011;38377;47.418;18.882;2022-12-20T06:37:23;48.00;;;23.33;;
38379;SDS011;38377;47.418;18.882;2022-12-20T06:39:49;45.10;;;24.70;;
38379;SDS011;38377;47.418;18.882;2022-12-20T06:42:15;43.90;;;24.87;;
38379;SDS011;38377;47.418;18.882;2022-12-20T06:44:40;52.93;;;24.67;;
38379;SDS011;38377;47.418;18.882;2022-12-20T06:47:06;45.57;;;23.07;;
38379;SDS011;38377;47.418;18.882;2022-12-20T06:49:32;52.53;;;25.87;;
38379;SDS011;38377;47.418;18.882;2022-12-20T06:51:57;39.97;;;21.60;;
38379;SDS011;38377;47.418;18.882;2022-12-20T06:54:23;53.13;;;26.60;;
38379;SDS011;38377;47.418;18.882;2022-12-20T06:56:49;52.93;;;27.53;;
38379;SDS011;38377;47.418;18.882;2022-12-20T06:59:14;47.60;;;23.87;;
38379;SDS011;38377;47.418;18.882;2022-12-20T07:01:41;51.37;;;25.73;;
38379;SDS011;38377;47.418;18.882;2022-12-20T07:04:06;43.33;;;24.63;;
38379;SDS011;38377;47.418;18.882;2022-12-20T07:06:32;48.20;;;25.07;;
38379;SDS011;38377;47.418;18.882;2022-12-20T07:08:58;44.33;;;24.33;;
38379;SDS011;38377;47.418;18.882;2022-12-20T07:11:24;44.23;;;21.67;;
38379;SDS011;38377;47.418;18.882;2022-12-20T07:13:53;43.17;;;23.27;;
38379;SDS011;38377;47.418;18.882;2022-12-20T07:16:20;44.47;;;22.50;;
38379;SDS011;38377;47.418;18.882;2022-12-20T07:18:49;59.03;;;24.07;;
38379;SDS011;38377;47.418;18.882;2022-12-20T07:21:16;42.23;;;22.77;;
38379;SDS011;38377;47.418;18.882;2022-12-20T07:23:43;42.67;;;19.40;;
38379;SDS011;38377;47.418;18.882;2022-12-20T07:26:09;40.83;;;20.67;;
38379;SDS011;38377;47.418;18.882;2022-12-20T07:28:35;42.20;;;21.80;;
38379;SDS011;38377;47.418;18.882;2022-12-20T07:31:02;41.93;;;22.30;;
38379;SDS011;38377;47.418;18.882;2022-12-20T07:33:28;44.00;;;22.70;;
38379;SDS011;38377;47.418;18.882;2022-12-20T07:36:01;43.43;;;22.97;;
38379;SDS011;38377;47.418;18.882;2022-12-20T07:38:28;45.50;;;23.20;;
38379;SDS011;38377;47.418;18.882;2022-12-20T07:40:54;47.57;;;24.23;;
38379;SDS011;38377;47.418;18.882;2022-12-20T07:43:20;40.93;;;23.00;;
38379;SDS011;38377;47.418;18.882;2022-12-20T07:45:46;50.33;;;23.40;;
38379;SDS011;38377;47.418;18.882;2022-12-20T07:48:12;47.40;;;24.00;;
38379;SDS011;38377;47.418;18.882;2022-12-20T07:50:38;40.00;;;22.57;;
38379;SDS011;38377;47.418;18.882;2022-12-20T07:53:05;28.97;;;15.07;;
38379;SDS011;38377;47.418;18.882;2022-12-20T07:55:31;40.43;;;22.70;;
38379;SDS011;38377;47.418;18.882;2022-12-20T07:57:59;45.60;;;24.20;;
38379;SDS011;38377;47.418;18.882;2022-12-20T08:00:28;41.80;;;22.83;;
38379;SDS011;38377;47.418;18.882;2022-12-20T08:03:16;42.07;;;21.47;;
38379;SDS011;38377;47.418;18.882;2022-12-20T08:05:46;38.43;;;21.33;;
38379;SDS011;38377;47.418;18.882;2022-12-20T08:08:17;41.93;;;23.07;;
38379;SDS011;38377;47.418;18.882;2022-12-20T08:10:43;46.07;;;25.40;;
38379;SDS011;38377;47.418;18.882;2022-12-20T08:13:10;35.97;;;20.33;;
38379;SDS011;38377;47.418;18.882;2022-12-20T08:15:36;43.07;;;21.30;;
38379;SDS011;38377;47.418;18.882;2022-12-20T08:18:02;45.53;;;23.00;;
38379;SDS011;38377;47.418;18.882;2022-12-20T08:20:30;39.40;;;20.43;;
38379;SDS011;38377;47.418;18.882;2022-12-20T08:22:56;42.03;;;21.13;;
38379;SDS011;38377;47.418;18.882;2022-12-20T08:25:22;39.20;;;22.40;;
38379;SDS011;38377;47.418;18.882;2022-12-20T08:27:48;41.60;;;20.90;;
38379;SDS011;38377;47.418;18.882;2022-12-20T08:30:13;37.13;;;18.50;;
38379;SDS011;38377;47.418;18.882;2022-12-20T08:32:39;37.17;;;19.27;;
38379;SDS011;38377;47.418;18.882;2022-12-20T08:35:05;38.87;;;21.10;;
38379;SDS011;38377;47.418;18.882;2022-12-20T08:37:32;36.93;;;20.87;;
38379;SDS011;38377;47.418;18.882;2022-12-20T08:39:58;39.83;;;20.70;;
38379;SDS011;38377;47.418;18.882;2022-12-20T08:42:25;37.53;;;19.93;;
38379;SDS011;38377;47.418;18.882;2022-12-20T08:44:51;32.73;;;18.73;;
38379;SDS011;38377;47.418;18.882;2022-12-20T08:47:17;35.33;;;19.60;;
38379;SDS011;38377;47.418;18.882;2022-12-20T08:49:42;30.73;;;15.17;;
38379;SDS011;38377;47.418;18.882;2022-12-20T08:52:08;38.90;;;19.67;;
38379;SDS011;38377;47.418;18.882;2022-12-20T08:54:33;38.27;;;20.03;;
38379;SDS011;38377;47.418;18.882;2022-12-20T08:56:59;33.83;;;16.40;;
38379;SDS011;38377;47.418;18.882;2022-12-20T08:59:25;24.27;;;12.80;;
38379;SDS011;38377;47.418;18.882;2022-12-20T09:01:51;32.43;;;15.40;;
38379;SDS011;38377;47.418;18.882;2022-12-20T09:04:18;36.73;;;19.17;;
38379;SDS011;38377;47.418;18.882;2022-12-20T09:06:44;34.13;;;16.67;;
38379;SDS011;38377;47.418;18.882;2022-12-20T09:09:10;37.80;;;19.30;;
38379;SDS011;38377;47.418;18.882;2022-12-20T09:11:36;39.03;;;20.70;;
38379;SDS011;38377;47.418;18.882;2022-12-20T09:14:02;35.93;;;18.67;;
38379;SDS011;38377;47.418;18.882;2022-12-20T09:16:28;30.53;;;17.57;;
38379;SDS011;38377;47.418;18.882;2022-12-20T09:18:56;36.07;;;19.27;;
38379;SDS011;38377;47.418;18.882;2022-12-20T09:21:23;31.97;;;17.77;;
38379;SDS011;38377;47.418;18.882;2022-12-20T09:23:49;31.70;;;17.27;;
38379;SDS011;38377;47.418;18.882;2022-12-20T09:26:16;33.10;;;17.60;;
38379;SDS011;38377;47.418;18.882;2022-12-20T09:28:44;32.20;;;16.00;;
38379;SDS011;38377;47.418;18.882;2022-12-20T09:31:11;32.37;;;17.43;;
38379;SDS011;38377;47.418;18.882;2022-12-20T09:33:41;29.55;;;14.35;;
38379;SDS011;38377;47.418;18.882;2022-12-20T09:36:11;26.87;;;15.33;;
38379;SDS011;38377;47.418;18.882;2022-12-20T09:38:39;29.20;;;16.97;;
38379;SDS011;38377;47.418;18.882;2022-12-20T09:41:06;28.07;;;15.40;;
38379;SDS011;38377;47.418;18.882;2022-12-20T09:43:33;31.07;;;14.83;;
38379;SDS011;38377;47.418;18.882;2022-12-20T09:46:01;23.97;;;13.97;;
38379;SDS011;38377;47.418;18.882;2022-12-20T09:48:29;28.30;;;15.53;;
38379;SDS011;38377;47.418;18.882;2022-12-20T09:59:23;30.83;;;17.93;;
38379;SDS011;38377;47.418;18.882;2022-12-20T10:01:49;33.60;;;18.93;;
38379;SDS011;38377;47.418;18.882;2022-12-20T10:04:25;29.37;;;17.87;;
38379;SDS011;38377;47.418;18.882;2022-12-20T10:10:31;26.20;;;14.40;;
38379;SDS011;38377;47.418;18.882;2022-12-20T10:16:02;29.60;;;16.53;;
38379;SDS011;38377;47.418;18.882;2022-12-20T10:26:49;28.13;;;17.07;;
38379;SDS011;38377;47.418;18.882;2022-12-20T10:29:16;35.43;;;18.30;;
38379;SDS011;38377;47.418;18.882;2022-12-20T10:31:43;28.27;;;16.60;;
38379;SDS011;38377;47.418;18.882;2022-12-20T10:34:08;30.43;;;16.87;;
38379;SDS011;38377;47.418;18.882;2022-12-20T10:36:34;22.80;;;12.90;;
38379;SDS011;38377;47.418;18.882;2022-12-20T10:39:02;28.03;;;14.57;;
38379;SDS011;38377;47.418;18.882;2022-12-20T10:41:31;26.57;;;15.60;;
38379;SDS011;38377;47.418;18.882;2022-12-20T10:46:50;32.67;;;16.90;;
38379;SDS011;38377;47.418;18.882;2022-12-20T10:51:53;30.50;;;16.60;;
38379;SDS011;38377;47.418;18.882;2022-12-20T10:54:22;25.60;;;15.47;;
38379;SDS011;38377;47.418;18.882;2022-12-20T10:56:56;27.93;;;15.40;;
38379;SDS011;38377;47.418;18.882;2022-12-20T10:59:34;30.40;;;16.57;;
38379;SDS011;38377;47.418;18.882;2022-12-20T11:02:16;25.67;;;13.17;;
38379;SDS011;38377;47.418;18.882;2022-12-20T11:05:34;25.90;;;14.47;;
38379;SDS011;38377;47.418;18.882;2022-12-20T11:07:57;29.47;;;15.10;;
38379;SDS011;38377;47.418;18.882;2022-12-20T11:10:38;28.60;;;15.27;;
38379;SDS011;38377;47.418;18.882;2022-12-20T11:13:04;29.13;;;14.33;;
38379;SDS011;38377;47.418;18.882;2022-12-20T11:15:34;28.03;;;14.83;;
38379;SDS011;38377;47.418;18.882;2022-12-20T11:18:12;24.25;;;13.95;;
38379;SDS011;38377;47.418;18.882;2022-12-20T11:26:03;27.60;;;15.07;;
38379;SDS011;38377;47.418;18.882;2022-12-20T11:37:22;28.52;;;15.85;;
38379;SDS011;38377;47.418;18.882;2022-12-20T11:40:02;26.43;;;15.07;;
38379;SDS011;38377;47.418;18.882;2022-12-20T11:45:29;22.42;;;14.40;;
38379;SDS011;38377;47.418;18.882;2022-12-20T11:48:04;30.93;;;16.97;;
38379;SDS011;38377;47.418;18.882;2022-12-20T11:53:25;30.33;;;17.57;;
38379;SDS011;38377;47.418;18.882;2022-12-20T11:56:01;30.73;;;15.47;;
38379;SDS011;38377;47.418;18.882;2022-12-20T12:01:12;31.10;;;14.67;;
38379;SDS011;38377;47.418;18.882;2022-12-20T12:03:52;25.73;;;14.57;;
38379;SDS011;38377;47.418;18.882;2022-12-20T12:07:07;32.13;;;15.57;;
38379;SDS011;38377;47.418;18.882;2022-12-20T12:09:35;29.27;;;14.90;;
38379;SDS011;38377;47.418;18.882;2022-12-20T12:12:13;30.73;;;16.20;;
38379;SDS011;38377;47.418;18.882;2022-12-20T12:17:50;20.90;;;12.77;;
38379;SDS011;38377;47.418;18.882;2022-12-20T12:22:57;30.30;;;16.90;;
38379;SDS011;38377;47.418;18.882;2022-12-20T12:25:29;25.07;;;16.57;;
38379;SDS011;38377;47.418;18.882;2022-12-20T12:27:55;25.20;;;14.97;;
38379;SDS011;38377;47.418;18.882;2022-12-20T12:30:21;39.27;;;16.50;;
38379;SDS011;38377;47.418;18.882;2022-12-20T12:32:52;26.27;;;14.67;;
38379;SDS011;38377;47.418;18.882;2022-12-20T12:46:36;24.45;;;14.85;;
38379;SDS011;38377;47.418;18.882;2022-12-20T12:51:31;30.13;;;17.47;;
38379;SDS011;38377;47.418;18.882;2022-12-20T12:54:16;30.03;;;17.43;;
38379;SDS011;38377;47.418;18.882;2022-12-20T12:57:02;31.40;;;16.80;;
38379;SDS011;38377;47.418;18.882;2022-12-20T12:59:45;31.17;;;16.07;;
38379;SDS011;38377;47.418;18.882;2022-12-20T13:07:39;26.48;;;16.33;;
38379;SDS011;38377;47.418;18.882;2022-12-20T13:12:54;30.33;;;18.27;;
38379;SDS011;38377;47.418;18.882;2022-12-20T13:17:51;29.97;;;17.03;;
38379;SDS011;38377;47.418;18.882;2022-12-20T13:20:37;28.77;;;16.73;;
38379;SDS011;38377;47.418;18.882;2022-12-20T13:25:31;32.43;;;16.90;;
38379;SDS011;38377;47.418;18.882;2022-12-20T13:30:44;32.30;;;18.13;;
38379;SDS011;38377;47.418;18.882;2022-12-20T13:33:22;29.93;;;16.93;;
38379;SDS011;38377;47.418;18.882;2022-12-20T13:36:03;29.48;;;17.08;;
38379;SDS011;38377;47.418;18.882;2022-12-20T13:38:51;27.30;;;15.40;;
38379;SDS011;38377;47.418;18.882;2022-12-20T13:44:33;24.83;;;15.23;;
38379;SDS011;38377;47.418;18.882;2022-12-20T13:47:25;34.20;;;19.97;;
38379;SDS011;38377;47.418;18.882;2022-12-20T13:49:59;25.80;;;15.23;;
38379;SDS011;38377;47.418;18.882;2022-12-20T13:52:30;31.17;;;16.83;;
38379;SDS011;38377;47.418;18.882;2022-12-20T13:57:26;27.37;;;16.03;;
38379;SDS011;38377;47.418;18.882;2022-12-20T13:59:55;28.00;;;16.90;;
38379;SDS011;38377;47.418;18.882;2022-12-20T14:02:28;28.77;;;16.20;;
38379;SDS011;38377;47.418;18.882;2022-12-20T14:05:06;28.93;;;16.00;;
38379;SDS011;38377;47.418;18.882;2022-12-20T14:07:38;31.17;;;18.13;;
38379;SDS011;38377;47.418;18.882;2022-12-20T14:10:15;31.90;;;17.40;;
38379;SDS011;38377;47.418;18.882;2022-12-20T14:12:46;29.70;;;16.47;;
38379;SDS011;38377;47.418;18.882;2022-12-20T14:17:49;29.70;;;16.33;;
38379;SDS011;38377;47.418;18.882;2022-12-20T14:20:15;29.63;;;17.07;;
38379;SDS011;38377;47.418;18.882;2022-12-20T14:22:50;31.37;;;17.27;;
38379;SDS011;38377;47.418;18.882;2022-12-20T14:25:20;37.13;;;20.90;;
38379;SDS011;38377;47.418;18.882;2022-12-20T14:27:53;33.57;;;18.07;;
38379;SDS011;38377;47.418;18.882;2022-12-20T14:30:30;33.00;;;19.23;;
38379;SDS011;38377;47.418;18.882;2022-12-20T14:33:12;31.07;;;18.37;;
38379;SDS011;38377;47.418;18.882;2022-12-20T14:36:06;35.37;;;20.03;;
38379;SDS011;38377;47.418;18.882;2022-12-20T14:38:35;36.17;;;19.97;;
38379;SDS011;38377;47.418;18.882;2022-12-20T14:43:58;34.20;;;20.10;;
38379;SDS011;38377;47.418;18.882;2022-12-20T14:46:38;36.13;;;20.37;;
38379;SDS011;38377;47.418;18.882;2022-12-20T14:49:18;40.13;;;21.87;;
38379;SDS011;38377;47.418;18.882;2022-12-20T14:51:48;40.37;;;21.20;;
38379;SDS011;38377;47.418;18.882;2022-12-20T14:54:18;38.37;;;21.27;;
38379;SDS011;38377;47.418;18.882;2022-12-20T14:56:51;41.13;;;23.40;;
38379;SDS011;38377;47.418;18.882;2022-12-20T14:59:21;39.13;;;23.83;;
38379;SDS011;38377;47.418;18.882;2022-12-20T15:01:50;44.93;;;23.03;;
38379;SDS011;38377;47.418;18.882;2022-12-20T15:04:20;43.33;;;25.60;;
38379;SDS011;38377;47.418;18.882;2022-12-20T15:06:55;49.23;;;29.40;;
38379;SDS011;38377;47.418;18.882;2022-12-20T15:09:21;53.17;;;30.63;;
38379;SDS011;38377;47.418;18.882;2022-12-20T15:11:46;54.07;;;32.87;;
38379;SDS011;38377;47.418;18.882;2022-12-20T15:16:52;54.13;;;29.90;;
38379;SDS011;38377;47.418;18.882;2022-12-20T15:19:18;49.73;;;28.03;;
38379;SDS011;38377;47.418;18.882;2022-12-20T15:21:44;48.43;;;26.03;;
38379;SDS011;38377;47.418;18.882;2022-12-20T15:24:14;46.03;;;25.30;;
38379;SDS011;38377;47.418;18.882;2022-12-20T15:26:43;44.90;;;26.47;;
38379;SDS011;38377;47.418;18.882;2022-12-20T15:29:19;44.13;;;24.77;;
38379;SDS011;38377;47.418;18.882;2022-12-20T15:31:46;44.07;;;24.57;;
38379;SDS011;38377;47.418;18.882;2022-12-20T15:36:42;49.77;;;28.73;;
38379;SDS011;38377;47.418;18.882;2022-12-20T15:39:08;45.77;;;27.10;;
38379;SDS011;38377;47.418;18.882;2022-12-20T15:41:35;43.73;;;25.70;;
38379;SDS011;38377;47.418;18.882;2022-12-20T15:44:05;51.50;;;26.20;;
38379;SDS011;38377;47.418;18.882;2022-12-20T15:46:35;52.33;;;29.47;;
38379;SDS011;38377;47.418;18.882;2022-12-20T15:49:01;62.10;;;35.20;;
38379;SDS011;38377;47.418;18.882;2022-12-20T15:51:30;51.07;;;28.90;;
38379;SDS011;38377;47.418;18.882;2022-12-20T15:56:25;48.63;;;27.47;;
38379;SDS011;38377;47.418;18.882;2022-12-20T15:58:51;48.83;;;26.70;;
38379;SDS011;38377;47.418;18.882;2022-12-20T16:01:18;52.90;;;28.90;;
38379;SDS011;38377;47.418;18.882;2022-12-20T16:03:50;61.73;;;29.37;;
38379;SDS011;38377;47.418;18.882;2022-12-20T16:06:16;49.43;;;26.93;;
38379;SDS011;38377;47.418;18.882;2022-12-20T16:08:42;44.17;;;24.53;;
38379;SDS011;38377;47.418;18.882;2022-12-20T16:11:24;47.27;;;25.77;;
38379;SDS011;38377;47.418;18.882;2022-12-20T16:13:52;48.30;;;26.50;;
38379;SDS011;38377;47.418;18.882;2022-12-20T16:16:20;45.50;;;27.63;;
38379;SDS011;38377;47.418;18.882;2022-12-20T16:18:47;46.63;;;26.93;;
38379;SDS011;38377;47.418;18.882;2022-12-20T16:21:17;40.70;;;24.70;;